METAR AND TAF INFORMATION
METAR FOR EFKS
ADDS - METARS form results

(0148 UTC 01 June 2020)
Data provider http://aviationweather.gov/metar/data/
 
METAR text: EFKS 010120Z AUTO 32004KT 9999 OVC026 07/07 Q1027
Conditions at: EFKS (KUUSAMO , FI) observed 0120 UTC 01 June 2020
Temperature: 7.0°C (45°F)
Dewpoint: 7.0°C (45°F) [RH = 100%]
Pressure (altimeter): 30.32 inches Hg (1027.0 mb)
Winds: from the NW (320 degrees) at 5 MPH (4 knots; 2.1 m/s)
Visibility: 6 or more miles (10+ km)
Ceiling: 2600 feet AGL
Clouds: overcast cloud deck at 2600 feet AGL
Weather: no significant weather observed at this time

METAR text: EFKS 010050Z AUTO 31005KT 9999 OVC027 07/07 Q1027
Conditions at: EFKS (KUUSAMO , FI) observed 0050 UTC 01 June 2020
Temperature: 7.0°C (45°F)
Dewpoint: 7.0°C (45°F) [RH = 100%]
Pressure (altimeter): 30.32 inches Hg (1027.0 mb)
Winds: from the NW (310 degrees) at 6 MPH (5 knots; 2.6 m/s)
Visibility: 6 or more miles (10+ km)
Ceiling: 2700 feet AGL
Clouds: overcast cloud deck at 2700 feet AGL
Weather: no significant weather observed at this time

 AIRPORT MAP

 RUNWAY INFORMATION
Runway 12 Runway length 8202 ft Runway width 148 ft
Runway elevation 866 ft Runway displaced threshold 131 ft Runway heading 132
Runway 30 Runway length 8202 ft Runway width 148 ft
Runway elevation 865 ft Runway displaced threshold 0 ft Runway heading 312

 AIRPORT FREQUENCIES
Type AFIS Name AFIS Frequency 118.65 MHZ
Type ATIS Name ATIS Frequency 114.4 MHZ

 AIRPORT NEAR NAVIGATION AIDS
Type VOR-DME Name Kantola Frequency 114400 KHZ
Type NDB Name Kilo-Sierra Frequency 340 KHZ



Powered by Virtual Airlines Manager [v2.6.2]